Time;durP1;ratioP1;P1;durP2;ratioP2;P2;SDS_P1;SDS_P2;PMS_P1;PMS_P2;Temp;Humidity;BMP_temperature;BMP_pressure;BME280_temperature;BME280_humidity;BME280_pressure;Samples;Min_cycle;Max_cycle;Signal;HPM_P1;HPM_P2
2022/10/11 00:02:05;;;;;;;22.43;2.30;;;12.60;99.90;;;;;;5093169;28;20246;-65
2022/10/11 00:04:31;;;;;;;4.63;2.50;;;12.60;99.90;;;;;;5093519;28;20222;-65
2022/10/11 00:06:57;;;;;;;14.23;3.00;;;12.60;99.90;;;;;;5093568;28;20172;-65
2022/10/11 00:09:22;;;;;;;9.50;3.23;;;12.60;99.90;;;;;;5091678;28;20888;-65
2022/10/11 00:11:48;;;;;;;4.30;2.77;;;12.50;99.90;;;;;;5086178;28;20189;-65
2022/10/11 00:14:14;;;;;;;9.10;2.33;;;12.60;99.90;;;;;;5077782;28;20657;-65
2022/10/11 00:16:43;;;;;;;6.60;2.93;;;12.60;99.90;;;;;;5093400;28;20191;-65
2022/10/11 00:19:09;;;;;;;6.87;2.30;;;12.60;99.90;;;;;;5093033;28;20241;-65
2022/10/11 00:21:35;;;;;;;10.33;2.30;;;12.60;99.90;;;;;;5092688;28;20954;-65
2022/10/11 00:24:01;;;;;;;6.27;2.50;;;12.60;99.90;;;;;;5093032;28;20462;-65
2022/10/11 00:26:26;;;;;;;3.53;1.50;;;12.60;99.90;;;;;;5092951;28;20425;-65
2022/10/11 00:28:52;;;;;;;4.90;2.13;;;12.70;99.90;;;;;;5092909;28;20551;-65
2022/10/11 00:31:18;;;;;;;7.20;2.33;;;12.70;99.90;;;;;;5079580;28;20623;-65
2022/10/11 00:33:43;;;;;;;5.30;1.50;;;12.70;99.90;;;;;;5092696;28;20188;-65
2022/10/11 00:36:12;;;;;;;10.13;2.70;;;12.70;99.90;;;;;;5092811;28;20221;-65
2022/10/11 00:38:38;;;;;;;4.20;2.40;;;12.70;99.90;;;;;;5074133;28;20504;-65
2022/10/11 00:41:04;;;;;;;9.50;2.97;;;12.80;99.90;;;;;;5074523;28;20592;-65
2022/10/11 00:43:31;;;;;;;9.30;2.37;;;12.70;99.90;;;;;;5079208;28;20209;-65
2022/10/11 00:45:56;;;;;;;3.70;1.80;;;12.60;99.90;;;;;;5092179;28;20184;-65
2022/10/11 00:48:32;;;;;;;5.60;2.40;;;12.70;99.90;;;;;;5092817;28;20947;-65
2022/10/11 00:51:00;;;;;;;8.90;2.57;;;12.70;99.90;;;;;;5079673;28;20199;-65
2022/10/11 00:53:29;;;;;;;10.87;2.43;;;12.70;99.90;;;;;;5084778;28;20419;-65
2022/10/11 00:56:00;;;;;;;10.80;3.73;;;12.70;99.90;;;;;;5080869;28;20459;-65
2022/10/11 00:58:26;;;;;;;6.70;2.63;;;12.70;99.90;;;;;;5088564;28;20940;-65
2022/10/11 01:00:53;;;;;;;7.67;2.80;;;12.70;99.90;;;;;;5087515;28;20426;-65
2022/10/11 01:03:23;;;;;;;6.43;2.07;;;12.70;99.90;;;;;;5091913;28;20223;-65
2022/10/11 01:05:49;;;;;;;13.73;3.57;;;12.70;99.90;;;;;;5092447;28;20433;-65
2022/10/11 01:08:15;;;;;;;4.97;2.77;;;12.80;99.90;;;;;;5089586;28;20902;-65
2022/10/11 01:10:41;;;;;;;6.67;2.27;;;12.80;99.90;;;;;;5082154;28;20187;-65
2022/10/11 01:13:25;;;;;;;12.37;2.60;;;12.90;99.90;;;;;;5091860;28;20184;-65
2022/10/11 01:16:09;;;;;;;6.73;2.17;;;12.90;99.90;;;;;;5092292;28;20191;-65
2022/10/11 01:18:48;;;;;;;12.03;2.60;;;13.10;99.90;;;;;;5079511;28;20558;-65
2022/10/11 01:21:29;;;;;;;6.53;2.27;;;13.00;99.90;;;;;;5092215;28;20442;-65
2022/10/11 01:24:36;;;;;;;9.07;2.90;;;13.00;99.90;;;;;;5080659;28;20470;-65
2022/10/11 01:27:13;;;;;;;15.37;2.60;;;13.00;99.90;;;;;;5082749;28;20478;-65
2022/10/11 01:29:52;;;;;;;6.40;2.93;;;13.00;99.90;;;;;;5086703;28;20419;-65
2022/10/11 01:32:28;;;;;;;6.20;3.90;;;13.10;99.90;;;;;;5071316;28;20507;-65
2022/10/11 01:35:09;;;;;;;6.70;2.17;;;13.10;99.90;;;;;;5092106;28;20834;-66
2022/10/11 01:37:47;;;;;;;7.23;2.60;;;13.10;99.90;;;;;;5074150;28;20442;-65
2022/10/11 01:40:20;;;;;;;7.10;3.20;;;13.10;99.90;;;;;;5072090;28;20434;-65
2022/10/11 01:42:46;;;;;;;10.83;3.47;;;13.10;99.90;;;;;;5077339;28;20429;-65
2022/10/11 01:45:15;;;;;;;6.40;2.40;;;13.10;99.90;;;;;;5091445;28;20951;-65
2022/10/11 01:47:41;;;;;;;5.47;3.23;;;13.10;99.90;;;;;;5091848;28;20775;-65
2022/10/11 01:50:42;;;;;;;11.43;2.87;;;13.20;99.90;;;;;;5081449;28;20427;-65
2022/10/11 01:53:29;;;;;;;9.93;3.50;;;13.10;99.90;;;;;;5087934;28;20188;-65
2022/10/11 01:56:17;;;;;;;10.20;3.30;;;13.20;99.90;;;;;;5071833;28;20420;-66
2022/10/11 01:59:01;;;;;;;12.27;3.07;;;13.20;99.90;;;;;;5029251;28;20425;-65
2022/10/11 02:01:44;;;;;;;6.63;2.30;;;13.10;99.90;;;;;;5090567;28;20892;-65
2022/10/11 02:04:41;;;;;;;4.77;2.73;;;13.10;99.90;;;;;;5082497;28;20512;-65
2022/10/11 02:07:18;;;;;;;6.57;3.20;;;13.10;99.90;;;;;;5083206;28;20422;-65
2022/10/11 02:10:08;;;;;;;5.67;2.53;;;13.10;99.90;;;;;;5093547;28;20422;-65
2022/10/11 02:12:42;;;;;;;5.47;2.80;;;13.10;99.90;;;;;;5087154;28;20424;-65
2022/10/11 02:15:10;;;;;;;13.13;2.70;;;13.20;99.90;;;;;;5092121;28;20522;-65
2022/10/11 02:17:42;;;;;;;5.63;3.30;;;13.10;99.90;;;;;;5095683;28;20878;-65
2022/10/11 02:20:13;;;;;;;4.93;2.63;;;13.10;99.90;;;;;;5087959;28;20407;-65
2022/10/11 02:22:42;;;;;;;10.10;3.00;;;13.10;99.90;;;;;;5077329;28;20990;-65
2022/10/11 02:25:14;;;;;;;11.87;3.30;;;13.10;99.90;;;;;;5095540;28;20489;-65
2022/10/11 02:27:42;;;;;;;8.50;3.40;;;13.10;99.90;;;;;;5095691;28;20454;-65
2022/10/11 02:30:08;;;;;;;9.13;2.83;;;13.20;99.90;;;;;;5095086;28;20411;-65
2022/10/11 02:32:38;;;;;;;5.00;2.73;;;13.10;99.90;;;;;;5094879;28;20870;-65
2022/10/11 02:35:05;;;;;;;6.83;2.90;;;13.10;99.90;;;;;;5094458;28;20436;-65
2022/10/11 02:37:42;;;;;;;9.63;2.40;;;13.10;99.90;;;;;;5093855;28;20429;-65
2022/10/11 02:40:27;;;;;;;6.80;3.73;;;13.10;99.90;;;;;;5094477;28;20779;-65
2022/10/11 02:42:53;;;;;;;11.53;2.77;;;13.10;99.90;;;;;;5081116;28;20501;-65
2022/10/11 02:45:33;;;;;;;4.27;2.37;;;13.10;99.90;;;;;;5075591;28;20840;-65
2022/10/11 02:47:59;;;;;;;13.23;4.80;;;13.10;99.90;;;;;;5083885;28;20214;-65
2022/10/11 02:50:26;;;;;;;5.33;2.67;;;13.10;99.90;;;;;;5094095;28;20418;-65
2022/10/11 02:52:51;;;;;;;17.73;3.70;;;13.10;99.90;;;;;;5079245;28;20256;-65
2022/10/11 02:55:17;;;;;;;6.23;2.50;;;13.10;99.90;;;;;;5077762;28;20514;-65
2022/10/11 02:57:43;;;;;;;7.60;2.50;;;13.10;99.90;;;;;;5094798;28;20599;-65
2022/10/11 03:00:09;;;;;;;6.03;3.03;;;13.10;99.90;;;;;;5090951;28;20551;-65
2022/10/11 03:02:35;;;;;;;11.60;3.60;;;13.10;99.90;;;;;;5083916;28;20207;-65
2022/10/11 03:05:01;;;;;;;6.77;3.37;;;13.10;99.90;;;;;;5090927;28;20466;-65
2022/10/11 03:07:26;;;;;;;22.53;3.63;;;13.20;99.90;;;;;;5094420;28;20177;-65
2022/10/11 03:09:52;;;;;;;9.07;3.40;;;13.10;99.90;;;;;;5094054;28;20550;-65
2022/10/11 03:12:17;;;;;;;7.13;2.90;;;13.10;99.90;;;;;;5094022;28;20210;-65
2022/10/11 03:14:43;;;;;;;9.40;4.17;;;13.00;99.90;;;;;;5093953;28;20192;-65
2022/10/11 03:17:08;;;;;;;8.23;3.63;;;13.00;99.90;;;;;;5083323;28;20185;-65
2022/10/11 03:19:34;;;;;;;7.70;3.00;;;13.00;99.90;;;;;;5087371;28;20181;-65
2022/10/11 03:22:00;;;;;;;5.27;3.00;;;12.90;99.90;;;;;;5073189;28;20254;-65
2022/10/11 03:24:25;;;;;;;8.33;2.40;;;12.80;99.90;;;;;;5090434;28;20235;-65
2022/10/11 03:26:51;;;;;;;15.37;3.77;;;12.70;99.90;;;;;;5084530;28;20256;-65
2022/10/11 03:29:16;;;;;;;10.30;3.63;;;12.60;99.90;;;;;;5083160;28;20197;-65
2022/10/11 03:31:42;;;;;;;6.50;3.30;;;12.50;99.90;;;;;;5093679;28;20541;-65
2022/10/11 03:34:08;;;;;;;19.60;3.53;;;12.50;99.90;;;;;;5090694;28;20603;-65
2022/10/11 03:36:34;;;;;;;10.00;4.27;;;12.50;99.90;;;;;;5082247;28;20207;-65
2022/10/11 03:39:01;;;;;;;11.90;5.87;;;12.50;99.90;;;;;;5090988;28;21765;-65
2022/10/11 03:41:27;;;;;;;19.00;6.50;;;12.50;99.90;;;;;;5082778;28;20190;-65
2022/10/11 03:43:53;;;;;;;19.83;7.07;;;12.60;99.90;;;;;;5090154;28;20463;-65
2022/10/11 03:46:18;;;;;;;18.30;8.60;;;12.70;99.90;;;;;;5083064;28;20172;-66
2022/10/11 03:48:44;;;;;;;20.53;8.50;;;12.70;99.90;;;;;;5090924;28;20186;-65
2022/10/11 03:51:11;;;;;;;17.70;9.43;;;12.70;99.90;;;;;;5081910;28;20191;-65
2022/10/11 03:53:37;;;;;;;21.73;9.93;;;12.70;99.90;;;;;;5086263;28;20193;-65
2022/10/11 03:56:03;;;;;;;25.43;9.50;;;12.70;99.90;;;;;;5083223;28;20437;-65
2022/10/11 03:58:29;;;;;;;15.80;9.87;;;12.80;99.90;;;;;;5086798;28;20431;-65
2022/10/11 04:00:55;;;;;;;31.33;10.47;;;12.70;99.90;;;;;;5073348;28;20469;-65
2022/10/11 04:03:21;;;;;;;23.60;10.90;;;12.80;99.90;;;;;;5072488;28;20701;-65
2022/10/11 04:05:46;;;;;;;22.67;11.87;;;12.80;99.90;;;;;;5082143;28;20180;-65
2022/10/11 04:08:12;;;;;;;26.17;10.67;;;12.70;99.90;;;;;;5090933;28;20185;-65
2022/10/11 04:10:38;;;;;;;40.47;14.23;;;12.70;99.90;;;;;;5073000;28;20223;-65
2022/10/11 04:13:04;;;;;;;20.87;9.97;;;12.70;99.90;;;;;;5088668;28;20301;-65
2022/10/11 04:15:30;;;;;;;18.13;9.87;;;12.60;99.90;;;;;;5087096;28;20438;-65
2022/10/11 04:17:56;;;;;;;25.30;9.80;;;12.70;99.90;;;;;;5084849;28;20246;-65
2022/10/11 04:20:21;;;;;;;25.13;10.67;;;12.70;99.90;;;;;;5074655;28;20267;-65
2022/10/11 04:22:47;;;;;;;25.93;11.77;;;12.70;99.90;;;;;;5072425;28;20611;-65
2022/10/11 04:25:12;;;;;;;27.57;11.07;;;12.70;99.90;;;;;;5072568;28;20219;-65
2022/10/11 04:27:38;;;;;;;20.87;10.50;;;12.70;99.90;;;;;;5088829;28;20190;-65
2022/10/11 04:30:05;;;;;;;22.00;9.03;;;12.70;99.90;;;;;;5083807;28;20181;-65
2022/10/11 04:32:31;;;;;;;25.37;11.23;;;12.70;99.90;;;;;;5088151;28;20180;-65
2022/10/11 04:34:57;;;;;;;28.27;9.83;;;12.70;99.90;;;;;;5092489;28;20427;-65
2022/10/11 04:37:22;;;;;;;18.40;10.43;;;12.70;99.90;;;;;;5089762;28;20282;-65
2022/10/11 04:39:48;;;;;;;28.37;11.07;;;12.70;99.90;;;;;;5081553;28;20533;-65
2022/10/11 04:42:13;;;;;;;21.43;10.43;;;12.70;99.90;;;;;;5090313;28;20654;-65
2022/10/11 04:44:39;;;;;;;25.43;9.20;;;12.70;99.90;;;;;;5080548;28;20202;-65
2022/10/11 04:47:05;;;;;;;26.93;10.90;;;12.70;99.90;;;;;;5092551;28;20677;-65
2022/10/11 04:49:30;;;;;;;35.67;10.87;;;12.60;99.90;;;;;;5092787;28;20226;-65
2022/10/11 04:51:56;;;;;;;23.47;10.70;;;12.70;99.90;;;;;;5085756;28;20263;-65
2022/10/11 04:54:21;;;;;;;37.80;10.83;;;12.70;99.90;;;;;;5083384;28;20192;-65
2022/10/11 04:56:47;;;;;;;16.83;9.10;;;12.70;99.90;;;;;;5088048;28;20184;-65
2022/10/11 04:59:13;;;;;;;31.47;11.60;;;12.60;99.90;;;;;;5079333;28;20211;-65
2022/10/11 05:01:38;;;;;;;23.27;10.70;;;12.70;99.90;;;;;;5073779;28;20394;-65
2022/10/11 05:04:04;;;;;;;30.53;11.17;;;12.70;99.90;;;;;;5092136;28;20208;-65
2022/10/11 05:06:29;;;;;;;23.40;11.40;;;12.70;99.90;;;;;;5091727;28;20606;-65
2022/10/11 05:08:55;;;;;;;28.13;11.43;;;12.70;99.90;;;;;;5091624;28;20180;-65
2022/10/11 05:11:21;;;;;;;20.23;10.23;;;12.70;99.90;;;;;;5091655;28;20318;-65
2022/10/11 05:13:46;;;;;;;21.93;9.47;;;12.60;99.90;;;;;;5082270;28;20264;-65
2022/10/11 05:16:13;;;;;;;33.40;11.73;;;12.60;99.90;;;;;;5087069;28;20195;-65
2022/10/11 05:18:39;;;;;;;22.53;10.27;;;12.70;99.90;;;;;;5083484;28;20279;-65
2022/10/11 05:21:08;;;;;;;28.67;10.60;;;12.70;99.90;;;;;;5089203;28;20464;-65
2022/10/11 05:23:35;;;;;;;24.67;10.63;;;12.60;99.90;;;;;;5091192;28;20508;-65
2022/10/11 05:26:01;;;;;;;30.23;10.00;;;12.70;99.90;;;;;;5089218;28;20414;-65
2022/10/11 05:28:27;;;;;;;23.47;10.47;;;12.70;99.90;;;;;;5087484;28;20444;-65
2022/10/11 05:30:54;;;;;;;26.47;11.17;;;12.80;99.90;;;;;;5091893;28;20418;-65
2022/10/11 05:33:20;;;;;;;37.20;11.87;;;12.70;99.90;;;;;;5091346;28;20425;-65
2022/10/11 05:35:45;;;;;;;36.97;10.67;;;12.70;99.90;;;;;;5091486;28;20509;-65
2022/10/11 05:38:11;;;;;;;29.37;12.03;;;12.70;99.90;;;;;;5090719;28;20548;-65
2022/10/11 05:40:37;;;;;;;18.93;10.43;;;12.70;99.90;;;;;;5077379;28;20196;-65
2022/10/11 05:43:03;;;;;;;23.33;11.80;;;12.70;99.90;;;;;;5091122;28;20192;-65
2022/10/11 05:45:29;;;;;;;31.90;13.17;;;12.70;99.90;;;;;;5091008;28;20446;-65
2022/10/11 05:47:55;;;;;;;24.57;9.87;;;12.70;99.90;;;;;;5091752;28;20442;-65
2022/10/11 05:50:20;;;;;;;34.70;11.67;;;12.70;99.90;;;;;;5091029;28;20509;-65
2022/10/11 05:52:46;;;;;;;22.33;10.40;;;12.70;99.90;;;;;;5086010;28;20586;-65
2022/10/11 05:55:11;;;;;;;25.30;10.60;;;12.70;99.90;;;;;;5088799;28;20195;-65
2022/10/11 05:57:37;;;;;;;24.43;10.97;;;12.70;99.90;;;;;;5080152;28;20181;-65
2022/10/11 06:00:04;;;;;;;19.73;10.40;;;12.70;99.90;;;;;;5086540;28;20645;-65
2022/10/11 06:02:29;;;;;;;29.33;13.03;;;12.70;99.90;;;;;;5091052;28;20183;-65
2022/10/11 06:04:55;;;;;;;27.90;11.57;;;12.70;99.90;;;;;;5090517;28;20470;-65
2022/10/11 06:07:20;;;;;;;37.23;12.43;;;12.70;99.90;;;;;;5091256;28;20717;-65
2022/10/11 06:09:46;;;;;;;26.40;11.03;;;12.70;99.90;;;;;;5091002;28;20180;-65
2022/10/11 06:12:12;;;;;;;22.73;10.40;;;12.70;99.90;;;;;;5090948;28;20185;-65
2022/10/11 06:14:37;;;;;;;25.30;11.77;;;12.70;99.90;;;;;;5088645;28;20196;-65
2022/10/11 06:17:03;;;;;;;26.97;11.73;;;12.70;99.90;;;;;;5074318;28;20690;-65
2022/10/11 06:19:29;;;;;;;27.00;11.47;;;12.70;99.90;;;;;;5087616;28;20658;-65
2022/10/11 06:21:54;;;;;;;23.03;11.13;;;12.80;99.90;;;;;;5079148;28;20201;-65
2022/10/11 06:24:20;;;;;;;22.90;10.83;;;12.80;99.90;;;;;;5079675;28;20746;-65
2022/10/11 06:26:47;;;;;;;28.70;11.30;;;12.70;99.90;;;;;;5088575;28;20222;-65
2022/10/11 06:29:15;;;;;;;22.97;10.67;;;12.80;99.90;;;;;;5084291;28;20234;-66
2022/10/11 06:31:41;;;;;;;31.63;12.00;;;12.80;99.90;;;;;;5080871;28;20798;-66
2022/10/11 06:34:07;;;;;;;28.40;11.40;;;12.80;99.90;;;;;;5086120;28;20465;-66
2022/10/11 06:36:32;;;;;;;37.43;10.83;;;12.80;99.90;;;;;;5088384;28;20196;-65
2022/10/11 06:39:00;;;;;;;46.73;12.17;;;12.80;99.90;;;;;;5078278;28;20184;-65
2022/10/11 06:41:27;;;;;;;26.33;11.70;;;12.80;99.90;;;;;;5085261;28;20268;-66
2022/10/11 06:43:53;;;;;;;28.03;10.37;;;12.90;99.90;;;;;;5080280;28;21235;-66
2022/10/11 06:46:21;;;;;;;32.23;10.60;;;12.90;99.90;;;;;;5089524;28;20443;-66
2022/10/11 06:48:47;;;;;;;26.87;11.47;;;12.90;99.90;;;;;;5080798;28;20429;-66
2022/10/11 06:51:15;;;;;;;25.43;11.10;;;12.90;99.90;;;;;;5088114;28;20461;-66
2022/10/11 06:53:41;;;;;;;21.83;11.37;;;12.90;99.90;;;;;;5087334;28;20461;-65
2022/10/11 06:56:10;;;;;;;29.03;10.30;;;12.90;99.90;;;;;;5090318;28;20820;-64
2022/10/11 06:58:36;;;;;;;34.07;10.70;;;13.00;99.90;;;;;;5090345;28;20897;-66
2022/10/11 07:01:07;;;;;;;28.57;11.70;;;13.00;99.90;;;;;;5089432;28;20421;-64
2022/10/11 07:03:34;;;;;;;42.13;11.00;;;13.00;99.90;;;;;;5088994;28;20455;-64
2022/10/11 07:06:05;;;;;;;37.77;12.10;;;13.00;99.90;;;;;;5090177;28;20422;-64
2022/10/11 07:08:31;;;;;;;19.13;9.90;;;13.00;99.90;;;;;;5095335;28;20746;-64
2022/10/11 07:11:04;;;;;;;24.73;10.80;;;13.10;99.90;;;;;;5090144;28;20446;-64
2022/10/11 07:13:30;;;;;;;22.33;10.40;;;13.10;99.90;;;;;;5088354;28;20185;-64
2022/10/11 07:15:58;;;;;;;19.80;10.13;;;13.10;99.90;;;;;;5083694;28;20815;-64
2022/10/11 07:18:24;;;;;;;18.47;8.90;;;13.10;99.90;;;;;;5087208;28;20216;-64
2022/10/11 07:20:50;;;;;;;20.60;10.73;;;13.10;99.90;;;;;;5088708;28;20457;-64
2022/10/11 07:23:15;;;;;;;24.03;9.70;;;13.10;99.90;;;;;;5088392;28;20180;-65
2022/10/11 07:25:41;;;;;;;28.23;10.03;;;13.10;99.90;;;;;;5091821;28;20225;-65
2022/10/11 07:28:07;;;;;;;20.73;9.40;;;13.10;99.90;;;;;;5089959;28;20336;-66
2022/10/11 07:30:32;;;;;;;26.00;9.50;;;13.10;99.90;;;;;;5085269;28;20263;-65
2022/10/11 07:32:58;;;;;;;33.80;8.77;;;13.20;99.90;;;;;;5092989;28;20651;-66
2022/10/11 07:35:23;;;;;;;25.07;10.30;;;13.20;99.90;;;;;;5087673;28;20250;-65
2022/10/11 07:37:49;;;;;;;24.07;8.80;;;13.20;99.90;;;;;;5081031;28;20184;-65
2022/10/11 07:40:15;;;;;;;19.37;9.50;;;13.10;99.90;;;;;;5087422;28;20219;-65
2022/10/11 07:42:40;;;;;;;22.27;9.93;;;13.10;99.90;;;;;;5087941;28;20187;-65
2022/10/11 07:45:06;;;;;;;21.73;8.70;;;13.20;99.90;;;;;;5081940;28;20696;-65
2022/10/11 07:47:33;;;;;;;35.80;9.20;;;13.10;99.90;;;;;;5087870;28;20181;-65
2022/10/11 07:49:58;;;;;;;28.07;9.20;;;13.20;99.90;;;;;;5088251;28;20321;-65
2022/10/11 07:52:24;;;;;;;22.17;8.77;;;13.20;99.90;;;;;;5079499;28;20429;-65
2022/10/11 07:54:49;;;;;;;22.17;9.63;;;13.20;99.90;;;;;;5082792;28;20180;-65
2022/10/11 07:57:15;;;;;;;18.37;7.80;;;13.20;99.90;;;;;;5090800;28;20191;-65
2022/10/11 07:59:42;;;;;;;17.03;8.60;;;13.30;99.90;;;;;;5088706;28;20199;-65
2022/10/11 08:02:11;;;;;;;20.63;9.60;;;13.30;99.90;;;;;;5090467;28;20180;-65
2022/10/11 08:04:37;;;;;;;22.97;10.17;;;13.30;99.90;;;;;;5092052;28;20458;-65
2022/10/11 08:07:03;;;;;;;36.03;9.20;;;13.40;99.90;;;;;;5086139;28;20425;-65
2022/10/11 08:09:29;;;;;;;15.93;8.27;;;13.40;99.90;;;;;;5091671;28;20218;-65
2022/10/11 08:11:54;;;;;;;27.17;9.10;;;13.50;99.90;;;;;;5082748;28;20172;-65
2022/10/11 08:14:20;;;;;;;17.57;7.73;;;13.50;99.90;;;;;;5085116;28;20631;-65
2022/10/11 08:16:46;;;;;;;15.90;7.50;;;13.50;99.90;;;;;;5086056;28;20177;-65
2022/10/11 08:19:12;;;;;;;19.00;8.93;;;13.50;99.90;;;;;;5086568;28;20827;-65
2022/10/11 08:21:38;;;;;;;16.33;7.63;;;13.60;99.90;;;;;;5079953;28;20484;-65
2022/10/11 08:24:04;;;;;;;14.27;6.83;;;13.80;99.90;;;;;;5083823;28;20196;-65
2022/10/11 08:26:31;;;;;;;18.17;7.80;;;13.90;99.90;;;;;;5090978;28;20176;-65
2022/10/11 08:29:03;;;;;;;13.50;6.93;;;14.20;99.90;;;;;;5090790;28;20450;-65
2022/10/11 08:31:29;;;;;;;29.37;10.10;;;14.50;99.90;;;;;;5090861;28;20420;-65
2022/10/11 08:33:55;;;;;;;18.00;6.40;;;14.90;99.90;;;;;;5090904;28;20458;-66
2022/10/11 08:36:20;;;;;;;14.33;6.00;;;15.40;99.90;;;;;;5090412;28;20446;-65
2022/10/11 08:38:46;;;;;;;24.63;6.07;;;15.50;99.90;;;;;;5089289;28;20188;-65
2022/10/11 08:41:36;;;;;;;16.97;6.80;;;15.50;99.90;;;;;;5082916;23;20803;-65
2022/10/11 08:44:34;;;;;;;13.60;6.40;;;15.70;99.90;;;;;;5027444;28;20244;-65
2022/10/11 08:47:14;;;;;;;12.13;6.10;;;15.60;99.90;;;;;;5027339;28;20579;-66
2022/10/11 08:49:40;;;;;;;11.77;5.73;;;15.50;99.90;;;;;;5027683;28;20469;-63
2022/10/11 08:52:23;;;;;;;21.80;7.57;;;15.30;99.90;;;;;;5029933;28;20417;-63
2022/10/11 08:54:56;;;;;;;16.03;7.17;;;15.10;99.90;;;;;;5030252;28;20548;-65
2022/10/11 08:57:26;;;;;;;20.03;6.93;;;14.90;99.90;;;;;;5030382;28;20425;-65
2022/10/11 09:00:13;;;;;;;12.70;7.40;;;14.70;99.90;;;;;;5030146;28;20429;-65
2022/10/11 09:02:46;;;;;;;14.20;6.80;;;14.60;99.90;;;;;;5012109;28;21008;-65
2022/10/11 09:05:16;;;;;;;21.53;6.67;;;14.50;99.90;;;;;;5030611;28;20897;-65
2022/10/11 09:07:55;;;;;;;22.57;8.10;;;14.40;99.90;;;;;;5029943;28;20413;-65
2022/10/11 09:10:57;;;;;;;13.43;5.50;;;14.40;99.90;;;;;;5023512;28;20782;-65
2022/10/11 09:13:44;;;;;;;13.97;6.33;;;14.40;99.90;;;;;;5028837;28;20417;-64
2022/10/11 09:16:09;;;;;;;29.30;8.33;;;14.40;99.90;;;;;;5030549;28;20425;-65
2022/10/11 09:19:16;;;;;;;14.00;6.07;;;14.40;99.90;;;;;;5030058;28;20447;-64
2022/10/11 09:21:54;;;;;;;12.57;5.73;;;14.30;99.90;;;;;;5026693;28;20170;-65
2022/10/11 09:24:31;;;;;;;14.90;7.03;;;14.30;99.90;;;;;;5026721;28;20567;-64
2022/10/11 09:27:00;;;;;;;10.67;5.47;;;14.30;99.90;;;;;;5029719;28;20421;-64
2022/10/11 09:29:31;;;;;;;41.97;10.03;;;14.30;99.90;;;;;;5028415;28;20997;-65
2022/10/11 09:31:57;;;;;;;23.50;8.53;;;14.30;99.90;;;;;;5025433;28;20417;-64
2022/10/11 09:34:31;;;;;;;12.00;7.20;;;14.20;99.90;;;;;;5029164;28;20489;-64
2022/10/11 09:37:19;;;;;;;16.40;8.00;;;14.30;99.90;;;;;;5025508;28;20450;-65
2022/10/11 09:40:14;;;;;;;18.00;7.10;;;14.40;99.90;;;;;;5025203;28;20520;-65
2022/10/11 09:42:40;;;;;;;16.80;8.00;;;14.50;99.90;;;;;;4994404;28;20467;-64
2022/10/11 09:45:16;;;;;;;27.53;7.80;;;14.50;99.90;;;;;;5027428;28;21255;-65
2022/10/11 09:47:42;;;;;;;17.90;6.90;;;14.50;99.90;;;;;;5023943;28;20180;-65
2022/10/11 09:50:20;;;;;;;20.20;8.90;;;14.40;99.90;;;;;;5027571;28;20504;-64
2022/10/11 09:52:55;;;;;;;10.47;5.83;;;14.40;99.90;;;;;;5045233;28;20207;-64
2022/10/11 09:55:33;;;;;;;18.47;6.50;;;14.50;99.90;;;;;;5045977;28;20960;-64
2022/10/11 09:57:59;;;;;;;12.77;7.07;;;14.40;99.90;;;;;;5041111;28;20930;-64
2022/10/11 10:00:27;;;;;;;16.93;6.87;;;14.30;99.90;;;;;;5039896;28;20421;-64
2022/10/11 10:02:58;;;;;;;17.47;6.97;;;14.30;99.90;;;;;;5046701;28;20554;-64
2022/10/11 10:05:31;;;;;;;15.37;7.60;;;14.30;99.90;;;;;;5047696;28;20483;-64
2022/10/11 10:08:07;;;;;;;18.13;7.67;;;14.50;99.90;;;;;;5045179;28;20423;-65
2022/10/11 10:10:33;;;;;;;27.77;8.60;;;14.50;99.90;;;;;;5042210;28;20426;-64
2022/10/11 10:13:02;;;;;;;21.70;8.97;;;14.50;99.90;;;;;;5045861;28;20408;-65
2022/10/11 10:15:35;;;;;;;24.80;7.27;;;14.50;99.90;;;;;;5047668;28;20185;-65
2022/10/11 10:18:02;;;;;;;18.17;7.97;;;14.60;99.90;;;;;;5030539;28;20444;-65
2022/10/11 10:20:37;;;;;;;14.70;8.63;;;14.70;99.90;;;;;;5043682;28;20416;-65
2022/10/11 10:23:28;;;;;;;15.13;7.20;;;14.60;99.90;;;;;;5046312;28;20423;-65
2022/10/11 10:26:13;;;;;;;20.43;8.47;;;14.50;99.90;;;;;;5021261;28;20869;-65
2022/10/11 10:29:00;;;;;;;13.83;6.53;;;14.40;99.90;;;;;;5052531;28;20426;-65
2022/10/11 10:31:46;;;;;;;16.00;7.23;;;14.30;99.90;;;;;;5052885;28;20416;-65
2022/10/11 10:34:17;;;;;;;11.33;6.90;;;14.30;99.90;;;;;;5035759;28;20432;-64
2022/10/11 10:36:46;;;;;;;15.07;8.13;;;14.30;99.90;;;;;;5051537;28;20431;-65
2022/10/11 10:39:41;;;;;;;20.90;7.73;;;14.30;99.90;;;;;;5056882;28;20758;-64
2022/10/11 10:42:21;;;;;;;15.77;8.50;;;14.40;99.90;;;;;;5030217;28;20451;-64
2022/10/11 10:44:52;;;;;;;13.53;6.83;;;14.40;99.90;;;;;;5050373;28;20558;-65
2022/10/11 10:47:44;;;;;;;25.93;7.70;;;14.30;99.90;;;;;;5049597;28;20774;-64
2022/10/11 10:50:12;;;;;;;19.73;7.73;;;14.40;99.90;;;;;;5038966;28;20486;-65
2022/10/11 10:52:53;;;;;;;15.50;6.03;;;14.40;99.90;;;;;;5039548;28;20429;-65
2022/10/11 10:55:30;;;;;;;19.53;8.10;;;14.40;99.90;;;;;;5051022;28;20936;-65
2022/10/11 10:58:09;;;;;;;13.20;7.37;;;14.40;99.90;;;;;;5049237;28;20455;-64
2022/10/11 11:01:00;;;;;;;29.23;7.90;;;14.40;99.90;;;;;;5050307;28;20624;-64
2022/10/11 11:03:40;;;;;;;21.90;8.47;;;14.40;99.90;;;;;;5049630;28;20409;-64
2022/10/11 11:06:11;;;;;;;14.20;7.13;;;14.40;99.90;;;;;;5049540;28;20746;-64
2022/10/11 11:08:50;;;;;;;21.37;9.10;;;14.50;99.90;;;;;;5049987;28;20771;-65
2022/10/11 11:11:55;;;;;;;20.50;7.67;;;14.40;99.90;;;;;;5050751;28;20430;-64
2022/10/11 11:14:24;;;;;;;28.80;7.87;;;14.30;99.90;;;;;;5046311;28;21235;-65
2022/10/11 11:17:03;;;;;;;23.33;8.70;;;14.40;99.90;;;;;;5052275;28;20542;-65
2022/10/11 11:19:37;;;;;;;23.10;8.53;;;14.50;99.90;;;;;;5049833;28;20514;-64
2022/10/11 11:22:26;;;;;;;21.80;7.63;;;14.40;99.90;;;;;;5048803;28;20415;-65
2022/10/11 11:25:13;;;;;;;15.10;7.60;;;14.30;99.90;;;;;;5051177;28;20514;-65
2022/10/11 11:28:06;;;;;;;19.10;8.97;;;14.20;99.90;;;;;;5052178;28;20440;-65
2022/10/11 11:30:50;;;;;;;19.40;7.63;;;14.20;99.90;;;;;;5051760;28;20413;-64
2022/10/11 11:33:40;;;;;;;23.03;7.83;;;14.40;99.90;;;;;;5044935;28;20416;-64
2022/10/11 11:36:12;;;;;;;15.13;6.37;;;14.30;99.90;;;;;;5047074;28;20431;-65
2022/10/11 11:38:50;;;;;;;13.77;7.37;;;14.30;99.90;;;;;;5045514;28;20408;-64
2022/10/11 11:41:38;;;;;;;13.07;5.67;;;14.40;99.90;;;;;;5051616;28;21162;-64
2022/10/11 11:44:41;;;;;;;19.70;6.43;;;14.50;99.90;;;;;;5049005;28;20483;-64
2022/10/11 11:47:19;;;;;;;15.47;8.03;;;14.50;99.90;;;;;;4998494;28;20448;-64
2022/10/11 11:49:49;;;;;;;15.13;5.17;;;14.40;99.90;;;;;;5047111;28;20432;-65
2022/10/11 11:52:56;;;;;;;33.30;7.40;;;14.40;99.90;;;;;;5050874;28;20431;-64
2022/10/11 11:55:42;;;;;;;20.80;7.37;;;14.40;99.90;;;;;;5033175;28;20562;-65
2022/10/11 11:58:37;;;;;;;23.63;8.80;;;14.40;99.90;;;;;;5052951;28;20809;-65
2022/10/11 12:01:28;;;;;;;14.93;7.03;;;14.40;99.90;;;;;;5044534;28;20448;-65
2022/10/11 12:03:57;;;;;;;19.00;8.57;;;14.60;99.90;;;;;;5045806;28;20468;-64
2022/10/11 12:06:28;;;;;;;11.70;6.20;;;14.50;99.90;;;;;;5051475;28;20432;-64
2022/10/11 12:09:05;;;;;;;13.70;6.37;;;14.60;99.90;;;;;;5052876;28;20489;-65
2022/10/11 12:11:39;;;;;;;16.27;8.33;;;14.80;99.90;;;;;;5051830;28;20544;-64
2022/10/11 12:14:39;;;;;;;14.90;6.90;;;14.80;99.90;;;;;;5038774;28;20432;-64
2022/10/11 12:17:23;;;;;;;13.23;5.97;;;14.90;99.90;;;;;;4990504;28;20474;-64
2022/10/11 12:20:27;;;;;;;13.00;5.80;;;14.80;99.90;;;;;;5047524;28;20432;-64
2022/10/11 12:22:53;;;;;;;21.20;6.23;;;14.80;99.90;;;;;;5047405;28;20442;-65
2022/10/11 12:25:21;;;;;;;16.00;7.47;;;14.90;99.90;;;;;;5051362;28;20464;-65
2022/10/11 12:27:48;;;;;;;18.03;6.80;;;14.90;99.90;;;;;;5052130;28;20680;-64
2022/10/11 12:30:49;;;;;;;18.60;6.13;;;15.00;99.90;;;;;;5051646;28;20416;-64
2022/10/11 12:33:29;;;;;;;10.70;4.90;;;15.20;99.90;;;;;;5046355;28;20458;-65
2022/10/11 12:35:57;;;;;;;10.50;4.60;;;15.20;99.90;;;;;;5042930;28;20496;-65
2022/10/11 12:38:38;;;;;;;11.63;6.17;;;15.30;99.90;;;;;;5040644;28;20540;-65
2022/10/11 12:41:09;;;;;;;16.07;6.53;;;15.30;99.90;;;;;;5036763;28;20989;-65
2022/10/11 12:43:47;;;;;;;11.23;5.03;;;15.30;99.90;;;;;;5050635;28;20547;-65
2022/10/11 12:46:37;;;;;;;30.77;6.90;;;15.20;99.90;;;;;;5049259;28;20423;-65
2022/10/11 12:49:31;;;;;;;10.23;5.53;;;15.30;99.90;;;;;;5041526;28;20835;-64
2022/10/11 12:51:59;;;;;;;20.80;6.63;;;15.30;99.90;;;;;;5045661;28;20486;-65
2022/10/11 12:54:44;;;;;;;18.93;5.90;;;15.20;99.90;;;;;;5051319;28;20981;-64
2022/10/11 12:57:49;;;;;;;14.87;5.63;;;15.00;99.90;;;;;;5046350;28;20856;-65
2022/10/11 13:00:31;;;;;;;18.00;6.77;;;14.90;99.90;;;;;;5018240;28;20468;-64